WXM80 ListenWXM80 Stop

You find our weather info also at:

UK Metoffice

WeatherCloud

Weather Underground

Northeastern Weather Network

AWEKAS

Citizen Weather Observer Program (CWOP)

HAMweather, WeatherForYou, PWS Weather


Weather Underground History page Text

Daily Summary for May 13, 2016 Units:  English    Metric   Both
« Previous Day
Next Day »
Daily Weekly Monthly Yearly Custom
  High: Low: Average:
Temperature: 65.7 °F 51.7 °F 59.3 °F
Dew Point: 60.5 °F 48.2 °F 55.9 °F
Humidity: 97 % 76 % 89 %
Wind Speed: 6.8 mph 0.0 mph 0.8 mph
Wind Gust: 13.0 mph - -
Wind:- - SSE
Pressure: 30.01 in 29.74 in -
Precipitation: 0.24 in    
Historical Graphs
 
 
Tabular Data for May 13, 2016
Time Temperature Dew Point Pressure Wind Wind Speed Wind Gust Humidity Rainfall Rate (Hourly)
00:03 54.5 °F 49.1 °F 30.00 in Calm     82 % 0.00 in
00:08 54.3 °F 48.9 °F 30.01 in Calm     82 % 0.00 in
00:13 54.1 °F 48.7 °F 30.01 in Calm     82 % 0.00 in
00:18 53.9 °F 48.9 °F 30.00 in Calm     83 % 0.00 in
00:23 53.7 °F 49.0 °F 30.00 in Calm     84 % 0.00 in
00:29 53.6 °F 48.6 °F 30.00 in Calm     83 % 0.00 in
00:34 53.4 °F 48.7 °F 30.00 in Calm     84 % 0.00 in
00:39 53.2 °F 48.5 °F 30.00 in Calm     84 % 0.00 in
00:44 53.1 °F 48.7 °F 30.00 in Calm     85 % 0.00 in
00:49 52.9 °F 48.5 °F 30.00 in Calm     85 % 0.00 in
00:54 52.7 °F 48.3 °F 29.99 in Calm     85 % 0.00 in
00:59 52.6 °F 48.5 °F 29.99 in Calm     86 % 0.00 in
01:04 52.4 °F 48.3 °F 29.99 in Calm     86 % 0.00 in
01:09 52.3 °F 48.2 °F 29.99 in Calm     86 % 0.00 in
01:14 52.2 °F 48.4 °F 29.99 in Calm     87 % 0.00 in
01:20 52.0 °F 48.3 °F 29.98 in Calm     87 % 0.00 in
01:25 51.9 °F 48.5 °F 29.98 in Calm     88 % 0.00 in
01:30 51.8 °F 48.4 °F 29.98 in Calm     88 % 0.00 in
01:35 51.7 °F 48.3 °F 29.98 in Calm     88 % 0.00 in
01:40 51.7 °F 48.6 °F 29.98 in Calm     89 % 0.00 in
01:45 51.7 °F 48.6 °F 29.98 in Calm     89 % 0.00 in
01:50 51.8 °F 49.0 °F 29.98 in Calm     90 % 0.00 in
01:55 51.9 °F 49.4 °F 29.98 in Calm     91 % 0.00 in
02:00 52.0 °F 49.5 °F 29.98 in Calm     91 % 0.00 in
02:05 52.1 °F 49.8 °F 29.97 in Calm     92 % 0.00 in
02:11 52.3 °F 50.0 °F 29.97 in Calm     92 % 0.00 in
02:16 52.4 °F 50.1 °F 29.97 in Calm     92 % 0.00 in
02:21 52.6 °F 50.3 °F 29.97 in Calm     92 % 0.00 in
02:26 52.7 °F 50.7 °F 29.96 in Calm     93 % 0.00 in
02:31 52.8 °F 50.5 °F 29.96 in Calm     92 % 0.00 in
02:36 53.0 °F 51.0 °F 29.96 in Calm     93 % 0.00 in
02:41 53.2 °F 51.2 °F 29.95 in Calm     93 % 0.00 in
02:46 53.4 °F 51.1 °F 29.95 in Calm     92 % 0.00 in
02:51 53.5 °F 51.2 °F 29.95 in Calm     92 % 0.00 in
03:02 53.8 °F 51.5 °F 29.94 in Calm     92 % 0.00 in
03:12 53.9 °F 51.6 °F 29.94 in Calm     92 % 0.00 in
03:17 54.1 °F 51.8 °F 29.94 in Calm     92 % 0.00 in
03:27 54.2 °F 51.9 °F 29.94 in Calm     92 % 0.00 in
03:32 54.3 °F 52.0 °F 29.93 in Calm   1.2 mph 92 % 0.00 in
03:37 54.4 °F 52.1 °F 29.93 in Calm     92 % 0.00 in
03:42 54.5 °F 52.2 °F 29.92 in Calm     92 % 0.00 in
03:47 54.6 °F 52.3 °F 29.92 in Calm     92 % 0.00 in
03:53 54.7 °F 52.4 °F 29.92 in Calm     92 % 0.00 in
03:58 54.7 °F 52.4 °F 29.92 in Calm     92 % 0.00 in
04:03 54.8 °F 52.5 °F 29.92 in Calm     92 % 0.00 in
04:08 54.9 °F 52.3 °F 29.92 in Calm     91 % 0.00 in
04:13 55.0 °F 52.4 °F 29.91 in Calm     91 % 0.00 in
04:18 55.1 °F 52.5 °F 29.91 in Calm     91 % 0.00 in
04:28 55.3 °F 52.7 °F 29.90 in Calm     91 % 0.00 in
04:33 55.3 °F 52.4 °F 29.90 in Calm     90 % 0.00 in
04:38 55.4 °F 52.5 °F 29.91 in Calm     90 % 0.00 in
04:44 55.5 °F 52.6 °F 29.91 in Calm     90 % 0.00 in
04:49 55.5 °F 52.6 °F 29.91 in Calm     90 % 0.00 in
04:54 55.6 °F 52.7 °F 29.91 in Calm     90 % 0.00 in
04:59 55.7 °F 52.5 °F 29.90 in Calm     89 % 0.00 in
05:04 55.8 °F 52.6 °F 29.91 in Calm     89 % 0.00 in
05:14 55.9 °F 52.7 °F 29.91 in Calm     89 % 0.00 in
05:24 56.0 °F 52.8 °F 29.90 in West 0.1 mph 1.2 mph 89 % 0.00 in
05:29 56.1 °F 52.9 °F 29.91 in Calm   1.2 mph 89 % 0.00 in
05:35 56.1 °F 52.9 °F 29.91 in Calm     89 % 0.00 in
05:40 56.2 °F 52.7 °F 29.91 in Calm     88 % 0.00 in
05:45 56.1 °F 52.6 °F 29.91 in Calm     88 % 0.00 in
05:50 56.1 °F 52.6 °F 29.91 in Calm     88 % 0.00 in
05:55 56.0 °F 52.5 °F 29.91 in Calm     88 % 0.00 in
06:00 55.9 °F 52.4 °F 29.90 in Calm     88 % 0.00 in
06:05 55.9 °F 52.4 °F 29.90 in Calm     88 % 0.00 in
06:10 55.7 °F 52.2 °F 29.90 in Calm     88 % 0.00 in
06:15 55.7 °F 52.2 °F 29.91 in Calm     88 % 0.00 in
06:20 55.7 °F 52.5 °F 29.91 in Calm     89 % 0.00 in
06:26 55.7 °F 52.5 °F 29.91 in Calm     89 % 0.00 in
06:31 55.8 °F 52.9 °F 29.91 in Calm     90 % 0.00 in
06:36 56.0 °F 53.4 °F 29.91 in West 1.2 mph 2.3 mph 91 % 0.00 in
06:41 56.3 °F 53.4 °F 29.91 in Calm     90 % 0.00 in
06:46 56.5 °F 53.6 °F 29.91 in Calm     90 % 0.00 in
06:51 56.7 °F 53.8 °F 29.91 in Calm     90 % 0.00 in
06:56 57.0 °F 54.1 °F 29.91 in Calm     90 % 0.00 in
07:01 57.6 °F 54.7 °F 29.91 in Calm   1.2 mph 90 % 0.00 in
07:12 58.4 °F 55.2 °F 29.90 in Calm     89 % 0.00 in
07:17 58.9 °F 55.0 °F 29.89 in Calm     87 % 0.00 in
07:22 59.4 °F 55.5 °F 29.89 in West 0.1 mph 1.2 mph 87 % 0.00 in
07:27 59.8 °F 55.6 °F 29.89 in NE 0.3 mph 2.3 mph 86 % 0.00 in
07:32 60.2 °F 55.7 °F 29.89 in NE 0.3 mph 2.0 mph 85 % 0.00 in
07:37 60.5 °F 55.6 °F 29.89 in Calm   2.3 mph 84 % 0.00 in
07:42 60.6 °F 55.4 °F 29.89 in NE 1.0 mph 2.3 mph 83 % 0.00 in
07:47 60.6 °F 55.1 °F 29.89 in NE 0.1 mph 3.5 mph 82 % 0.00 in
07:52 60.6 °F 55.1 °F 29.89 in NE 1.8 mph 3.5 mph 82 % 0.00 in
07:57 60.7 °F 55.5 °F 29.89 in NE 0.7 mph 3.5 mph 83 % 0.00 in
08:03 60.9 °F 56.0 °F 29.89 in NE 1.4 mph 2.0 mph 84 % 0.00 in
08:08 61.1 °F 56.2 °F 29.88 in NNW 1.7 mph 2.3 mph 84 % 0.00 in
08:13 61.4 °F 56.5 °F 29.88 in NNW 1.6 mph 2.3 mph 84 % 0.00 in
08:18 61.6 °F 56.4 °F 29.88 in NNW 0.4 mph 2.3 mph 83 % 0.00 in
08:23 61.8 °F 56.9 °F 29.88 in NNW 1.2 mph 2.3 mph 84 % 0.00 in
08:28 62.3 °F 57.4 °F 29.88 in NNW 0.8 mph 2.3 mph 84 % 0.00 in
08:33 62.7 °F 57.5 °F 29.88 in NNW 2.1 mph 3.5 mph 83 % 0.00 in
08:38 62.9 °F 57.3 °F 29.88 in NNW 0.7 mph 2.3 mph 82 % 0.00 in
08:43 63.1 °F 57.2 °F 29.88 in Calm   2.3 mph 81 % 0.00 in
08:48 63.4 °F 57.1 °F 29.88 in NNW 2.7 mph 4.0 mph 80 % 0.00 in
08:54 63.6 °F 57.3 °F 29.88 in NNW 2.6 mph 3.5 mph 80 % 0.00 in
08:59 63.8 °F 57.5 °F 29.89 in NNW 1.4 mph 3.5 mph 80 % 0.00 in
09:04 63.8 °F 57.5 °F 29.88 in NNW 3.2 mph 5.0 mph 80 % 0.00 in
09:09 64.0 °F 57.0 °F 29.88 in NNW 1.2 mph 3.5 mph 78 % 0.00 in
09:14 64.1 °F 57.5 °F 29.88 in North 2.8 mph 4.6 mph 79 % 0.00 in
09:19 64.3 °F 58.0 °F 29.87 in North 1.8 mph 3.5 mph 80 % 0.00 in
09:24 64.3 °F 57.3 °F 29.87 in ENE 2.3 mph 3.5 mph 78 % 0.00 in
09:29 64.3 °F 57.6 °F 29.87 in ENE 2.5 mph 4.0 mph 79 % 0.00 in
09:34 64.3 °F 56.9 °F 29.87 in NE 1.0 mph 3.5 mph 77 % 0.00 in
09:39 64.6 °F 57.9 °F 29.87 in North 3.2 mph 3.5 mph 79 % 0.00 in
09:45 64.6 °F 56.9 °F 29.87 in NNE 1.0 mph 3.5 mph 76 % 0.00 in
09:50 64.5 °F 57.1 °F 29.86 in North 2.3 mph 5.8 mph 77 % 0.00 in
09:55 64.3 °F 57.3 °F 29.87 in ENE 2.1 mph 3.5 mph 78 % 0.00 in
10:00 63.9 °F 56.9 °F 29.86 in ENE 0.9 mph 2.3 mph 78 % 0.00 in
10:05 64.1 °F 57.8 °F 29.86 in NNE 2.2 mph 4.6 mph 80 % 0.00 in
10:10 64.3 °F 57.3 °F 29.86 in North 1.9 mph 3.5 mph 78 % 0.00 in
10:15 64.4 °F 57.4 °F 29.86 in NNE 4.4 mph 5.0 mph 78 % 0.00 in
10:20 64.3 °F 57.3 °F 29.86 in NNE 1.7 mph 3.5 mph 78 % 0.00 in
10:25 64.7 °F 58.0 °F 29.86 in NNE 2.6 mph 3.0 mph 79 % 0.00 in
10:33 64.9 °F 57.9 °F 29.86 in NNE 2.1 mph 3.5 mph 78 % 0.00 in
10:38 64.7 °F 57.3 °F 29.86 in NNE 3.9 mph 5.0 mph 77 % 0.00 in
10:43 64.3 °F 56.9 °F 29.86 in ENE 2.7 mph 3.5 mph 77 % 0.00 in
10:49 63.5 °F 56.5 °F 29.86 in ENE 2.2 mph 3.5 mph 78 % 0.00 in
10:54 62.9 °F 56.6 °F 29.86 in ENE 1.6 mph 3.5 mph 80 % 0.00 in
11:04 62.0 °F 56.1 °F 29.86 in ENE 2.7 mph 4.6 mph 81 % 0.00 in
11:09 61.5 °F 56.0 °F 29.86 in ENE 1.1 mph 3.0 mph 82 % 0.00 in
11:14 61.3 °F 56.4 °F 29.86 in ENE 1.4 mph 3.5 mph 84 % 0.00 in
11:19 61.4 °F 56.5 °F 29.86 in NE 2.0 mph 3.5 mph 84 % 0.00 in
11:24 61.4 °F 56.5 °F 29.86 in NNE 1.1 mph 3.5 mph 84 % 0.00 in
11:29 61.4 °F 56.5 °F 29.85 in NE 1.0 mph 2.3 mph 84 % 0.00 in
11:34 61.3 °F 56.4 °F 29.85 in NE 1.1 mph 3.5 mph 84 % 0.00 in
11:40 61.2 °F 56.3 °F 29.85 in ENE 1.1 mph 1.2 mph 84 % 0.00 in
11:45 61.2 °F 56.7 °F 29.85 in NNE 1.0 mph 3.5 mph 85 % 0.00 in
11:50 61.2 °F 56.7 °F 29.85 in NNE 1.7 mph 3.5 mph 85 % 0.00 in
11:55 61.3 °F 57.1 °F 29.85 in NNE 1.0 mph 2.3 mph 86 % 0.00 in
12:00 61.4 °F 57.5 °F 29.85 in NNE 1.0 mph 2.3 mph 87 % 0.00 in
12:05 61.7 °F 58.4 °F 29.85 in NNE 0.2 mph 1.2 mph 89 % 0.00 in
12:10 62.2 °F 59.2 °F 29.84 in SW 1.3 mph 4.6 mph 90 % 0.00 in
12:15 62.8 °F 59.8 °F 29.84 in SSE 6.2 mph 11.5 mph 90 % 0.00 in
12:20 63.5 °F 59.9 °F 29.84 in SE 2.8 mph 6.9 mph 88 % 0.00 in
12:25 64.0 °F 59.7 °F 29.83 in South 1.1 mph 3.5 mph 86 % 0.00 in
12:31 64.3 °F 60.0 °F 29.83 in WSW 0.2 mph 2.3 mph 86 % 0.00 in
12:36 64.4 °F 60.1 °F 29.82 in South 1.3 mph 4.6 mph 86 % 0.00 in
12:41 64.6 °F 60.3 °F 29.82 in WSW 0.7 mph 3.5 mph 86 % 0.00 in
12:46 64.8 °F 60.5 °F 29.82 in SE 4.8 mph 8.1 mph 86 % 0.00 in
12:51 64.8 °F 59.5 °F 29.82 in SSW 1.6 mph 8.1 mph 83 % 0.00 in
12:56 64.9 °F 59.9 °F 29.81 in SSE 1.2 mph 3.5 mph 84 % 0.00 in
13:01 65.1 °F 59.8 °F 29.81 in SSE 6.8 mph 9.0 mph 83 % 0.00 in
13:06 65.2 °F 59.9 °F 29.81 in SE 3.2 mph 6.9 mph 83 % 0.00 in
13:11 65.2 °F 59.6 °F 29.81 in SSE 1.6 mph 11.5 mph 82 % 0.00 in
13:16 65.3 °F 60.0 °F 29.81 in SSE 3.6 mph 5.8 mph 83 % 0.00 in
13:22 65.3 °F 59.3 °F 29.81 in SSE 4.0 mph 11.5 mph 81 % 0.00 in
13:27 65.2 °F 59.6 °F 29.81 in SSE 5.8 mph 10.4 mph 82 % 0.00 in
13:32 64.9 °F 59.3 °F 29.81 in SSE 0.3 mph 2.3 mph 82 % 0.00 in
13:37 65.2 °F 60.2 °F 29.80 in SSW 0.8 mph 2.3 mph 84 % 0.00 in
13:42 65.5 °F 59.9 °F 29.80 in South 2.6 mph 4.0 mph 82 % 0.00 in
13:47 65.6 °F 59.6 °F 29.80 in SSW 2.5 mph 10.4 mph 81 % 0.00 in
13:52 65.7 °F 60.1 °F 29.80 in South 3.3 mph 5.0 mph 82 % 0.00 in
13:57 65.7 °F 59.7 °F 29.79 in SSW 2.8 mph 5.8 mph 81 % 0.00 in
14:02 65.7 °F 59.4 °F 29.79 in SSE 4.4 mph 13.0 mph 80 % 0.00 in
14:07 65.6 °F 59.6 °F 29.79 in SSW 1.7 mph 3.5 mph 81 % 0.00 in
14:13 65.6 °F 59.6 °F 29.79 in SSE 2.6 mph 9.2 mph 81 % 0.00 in
14:18 65.6 °F 59.3 °F 29.79 in SSW 3.4 mph 5.8 mph 80 % 0.00 in
14:28 65.3 °F 59.0 °F 29.79 in SSW 2.4 mph 5.0 mph 80 % 0.00 in
14:33 65.1 °F 58.8 °F 29.79 in South 4.4 mph 8.1 mph 80 % 0.00 in
14:38 65.0 °F 58.7 °F 29.78 in SW 2.7 mph 5.8 mph 80 % 0.00 in
14:43 64.7 °F 58.4 °F 29.78 in SE 4.1 mph 8.1 mph 80 % 0.00 in
14:48 64.7 °F 58.7 °F 29.78 in South 2.5 mph 3.5 mph 81 % 0.00 in
14:53 64.5 °F 58.5 °F 29.78 in South 2.9 mph 5.8 mph 81 % 0.00 in
14:58 64.1 °F 58.5 °F 29.78 in SSE 1.0 mph 8.1 mph 82 % 0.00 in
15:04 63.7 °F 58.4 °F 29.78 in SSE 4.1 mph 9.2 mph 83 % 0.00 in
15:09 63.0 °F 58.1 °F 29.77 in SSE 4.0 mph 6.9 mph 84 % 0.00 in
15:14 62.5 °F 58.3 °F 29.77 in South 6.6 mph 10.4 mph 86 % 0.00 in
15:19 62.0 °F 57.8 °F 29.76 in SE 4.8 mph 9.0 mph 86 % 0.00 in
15:24 61.7 °F 57.8 °F 29.76 in SSE 4.1 mph 6.0 mph 87 % 0.00 in
15:29 61.2 °F 57.6 °F 29.76 in South 2.5 mph 5.8 mph 88 % 0.00 in
15:34 61.0 °F 57.7 °F 29.76 in SE 2.1 mph 3.5 mph 89 % 0.00 in
15:39 60.7 °F 57.4 °F 29.76 in South 1.6 mph 4.6 mph 89 % 0.00 in
15:44 60.6 °F 57.7 °F 29.76 in SE 1.0 mph 4.0 mph 90 % 0.01 in
15:49 60.5 °F 57.6 °F 29.76 in SE 0.8 mph 3.5 mph 90 % 0.01 in
15:55 60.4 °F 57.8 °F 29.76 in SE 1.9 mph 4.0 mph 91 % 0.02 in
16:05 60.2 °F 57.6 °F 29.76 in SSE 0.7 mph 2.3 mph 91 % 0.02 in
16:10 60.2 °F 57.9 °F 29.76 in SSE 0.1 mph 2.3 mph 92 % 0.03 in
16:15 60.2 °F 57.9 °F 29.76 in WSW 0.8 mph 3.5 mph 92 % 0.03 in
16:20 60.2 °F 57.9 °F 29.76 in West 1.0 mph 3.0 mph 92 % 0.03 in
16:25 60.2 °F 58.2 °F 29.76 in South 0.5 mph 1.2 mph 93 % 0.03 in
16:35 60.3 °F 58.3 °F 29.75 in South 0.6 mph 2.3 mph 93 % 0.03 in
16:40 60.3 °F 58.3 °F 29.75 in SSW 0.4 mph 2.3 mph 93 % 0.03 in
16:46 60.3 °F 58.3 °F 29.75 in SSW 0.8 mph 2.3 mph 93 % 0.05 in
16:51 60.3 °F 58.3 °F 29.75 in South 0.5 mph 1.2 mph 93 % 0.06 in
16:54 60.3 °F 58.3 °F 29.76 in South 0.2 mph 1.2 mph 93 % 0.06 in
16:59 60.3 °F 58.3 °F 29.75 in SW 0.3 mph 2.3 mph 93 % 0.07 in
17:04 60.3 °F 58.3 °F 29.75 in Calm   2.0 mph 93 % 0.08 in
17:09 60.3 °F 58.6 °F 29.75 in WSW 0.2 mph 2.3 mph 94 % 0.09 in
17:19 60.3 °F 58.6 °F 29.76 in WSW 0.5 mph 3.5 mph 94 % 0.11 in
17:25 60.3 °F 58.6 °F 29.76 in WSW 1.4 mph 3.5 mph 94 % 0.12 in
17:35 60.2 °F 58.5 °F 29.76 in WSW 0.1 mph 1.0 mph 94 % 0.13 in
17:40 60.2 °F 58.5 °F 29.76 in WSW 2.1 mph 3.5 mph 94 % 0.13 in
17:45 60.2 °F 58.5 °F 29.76 in West 0.3 mph 2.3 mph 94 % 0.12 in
17:50 60.2 °F 58.5 °F 29.76 in West 0.1 mph 1.2 mph 94 % 0.10 in
17:55 60.2 °F 58.5 °F 29.76 in West 1.6 mph 3.5 mph 94 % 0.10 in
18:00 60.1 °F 58.4 °F 29.76 in Calm     94 % 0.09 in
18:05 60.1 °F 58.4 °F 29.75 in Calm     94 % 0.08 in
18:10 60.1 °F 58.4 °F 29.75 in Calm     94 % 0.08 in
18:16 60.1 °F 58.4 °F 29.75 in Calm     94 % 0.07 in
18:21 60.1 °F 58.7 °F 29.75 in Calm     95 % 0.07 in
18:26 60.1 °F 58.4 °F 29.74 in Calm     94 % 0.06 in
18:31 60.0 °F 58.3 °F 29.74 in Calm     94 % 0.05 in
18:36 60.0 °F 58.3 °F 29.75 in Calm     94 % 0.06 in
18:41 59.9 °F 58.2 °F 29.74 in Calm     94 % 0.05 in
18:46 59.9 °F 58.2 °F 29.75 in Calm     94 % 0.05 in
18:51 59.8 °F 58.1 °F 29.75 in Calm     94 % 0.06 in
18:56 59.8 °F 58.1 °F 29.75 in Calm     94 % 0.05 in
19:01 59.8 °F 58.1 °F 29.74 in Calm     94 % 0.05 in
19:07 59.8 °F 58.1 °F 29.74 in Calm     94 % 0.04 in
19:12 59.7 °F 58.3 °F 29.75 in Calm     95 % 0.03 in
19:17 59.7 °F 58.3 °F 29.74 in Calm     95 % 0.03 in
19:22 59.6 °F 58.2 °F 29.74 in Calm     95 % 0.02 in
19:27 59.5 °F 58.1 °F 29.74 in Calm     95 % 0.02 in
19:32 59.5 °F 58.1 °F 29.75 in Calm     95 % 0.02 in
19:37 59.4 °F 57.7 °F 29.74 in Calm     94 % 0.01 in
19:42 59.4 °F 58.0 °F 29.74 in Calm     95 % 0.01 in
19:47 59.5 °F 58.1 °F 29.74 in Calm     95 % 0.01 in
19:58 59.5 °F 58.1 °F 29.74 in Calm     95 % 0.00 in
20:03 59.5 °F 58.1 °F 29.74 in Calm     95 % 0.00 in
20:08 59.5 °F 58.1 °F 29.74 in Calm     95 % 0.00 in
20:13 59.5 °F 58.1 °F 29.74 in Calm     95 % 0.00 in
20:18 59.6 °F 58.2 °F 29.74 in Calm     95 % 0.00 in
20:23 59.6 °F 58.2 °F 29.74 in Calm   1.2 mph 95 % 0.00 in
20:28 59.5 °F 58.1 °F 29.74 in West 0.2 mph 1.2 mph 95 % 0.00 in
20:33 59.4 °F 58.0 °F 29.74 in West 0.1 mph 1.2 mph 95 % 0.00 in
20:38 59.3 °F 57.9 °F 29.74 in Calm     95 % 0.00 in
20:43 59.2 °F 57.8 °F 29.75 in Calm     95 % 0.00 in
20:49 59.1 °F 57.7 °F 29.75 in Calm     95 % 0.00 in
20:54 59.0 °F 57.6 °F 29.75 in Calm     95 % 0.00 in
20:59 58.9 °F 57.5 °F 29.75 in Calm     95 % 0.00 in
21:04 58.9 °F 57.5 °F 29.74 in Calm     95 % 0.00 in
21:09 58.8 °F 57.4 °F 29.75 in Calm     95 % 0.01 in
21:14 58.7 °F 57.3 °F 29.75 in Calm     95 % 0.01 in
21:19 58.6 °F 57.2 °F 29.75 in Calm     95 % 0.01 in
21:24 58.5 °F 57.1 °F 29.76 in Calm     95 % 0.01 in
21:29 58.5 °F 57.1 °F 29.76 in Calm     95 % 0.01 in
21:34 58.4 °F 57.0 °F 29.76 in Calm     95 % 0.01 in
21:40 58.4 °F 57.0 °F 29.76 in Calm     95 % 0.01 in
21:45 58.4 °F 57.0 °F 29.76 in Calm     95 % 0.01 in
21:50 58.3 °F 56.9 °F 29.77 in Calm     95 % 0.01 in
21:55 58.3 °F 56.9 °F 29.77 in Calm     95 % 0.01 in
22:00 58.3 °F 56.9 °F 29.77 in Calm     95 % 0.01 in
22:05 58.3 °F 56.9 °F 29.77 in Calm     95 % 0.01 in
22:10 58.3 °F 56.9 °F 29.78 in Calm     95 % 0.00 in
22:15 58.4 °F 57.3 °F 29.78 in Calm     96 % 0.00 in
22:20 58.4 °F 57.0 °F 29.77 in Calm     95 % 0.00 in
22:25 58.4 °F 57.0 °F 29.78 in Calm     95 % 0.00 in
22:31 58.4 °F 57.3 °F 29.78 in Calm     96 % 0.00 in
22:41 58.4 °F 57.3 °F 29.78 in Calm     96 % 0.00 in
22:46 58.4 °F 57.3 °F 29.78 in Calm     96 % 0.00 in
22:51 58.4 °F 57.3 °F 29.78 in Calm     96 % 0.00 in
22:56 58.5 °F 57.4 °F 29.77 in Calm     96 % 0.00 in
23:01 58.5 °F 57.4 °F 29.78 in Calm     96 % 0.00 in
23:06 58.6 °F 57.5 °F 29.77 in Calm     96 % 0.00 in
23:11 58.6 °F 57.5 °F 29.77 in Calm     96 % 0.00 in
23:17 58.7 °F 57.6 °F 29.77 in Calm     96 % 0.00 in
23:22 58.7 °F 57.6 °F 29.77 in Calm     96 % 0.00 in
23:27 58.7 °F 57.6 °F 29.76 in Calm   2.3 mph 96 % 0.00 in
23:32 58.7 °F 57.6 °F 29.76 in Calm     96 % 0.00 in
23:37 58.9 °F 57.8 °F 29.76 in Calm     96 % 0.00 in
23:42 59.0 °F 58.2 °F 29.76 in Calm     97 % 0.00 in
23:47 59.1 °F 58.2 °F 29.76 in Calm     97 % 0.00 in
23:52 59.1 °F 58.2 °F 29.76 in Calm     97 % 0.00 in
23:57 59.2 °F 58.3 °F 29.76 in West 0.6 mph 1.2 mph 97 % 0.00 in
Crab Meadow Weather
Compliments of Weather Underground - 3 mb

Script developed by  Jim McMurry - jmcmurry@mwt.net Adapted for the template by  Wim van der Kuil - Leuven-Template.eu

Weather Terms: Degree Day - Gauges the amount of heating or cooling needed for a building using 65 degrees as a baseline. To compute degree days, the average temperature for a day is taken and referenced to 65. An average temperature of 50 yields 15 heating degree days, while an average temperature of 75 would yield 10 cooling degree days.